Date,TemperatureHighF,TemperatureAvgF,TemperatureLowF,DewpointHighF,DewpointAvgF,DewpointLowF,HumidityHigh,HumidityAvg,HumidityLow,PressureMaxIn,PressureMinIn,WindSpeedMaxMPH,WindSpeedAvgMPH,GustSpeedMaxMPH,PrecipitationSumIn
2013-1-1,29,12,2,-100,-100,-100,0,0,100,0.00,40.00,0,-999,0,0.00
2013-1-2,30,27,19,-100,-100,-100,0,0,100,0.00,40.00,0,-999,0,0.00
2013-1-3,27,21,18,-100,-100,-100,0,0,100,0.00,40.00,0,-999,0,0.00
2013-1-4,25,18,9,-100,-100,-100,0,0,100,0.00,40.00,0,-999,0,0.00
2013-1-5,22,13,7,-100,-100,-100,0,0,100,0.00,40.00,0,-999,0,0.00
2013-1-6,27,16,8,-100,-100,-100,0,0,100,0.00,40.00,0,-999,0,0.00
2013-1-7,36,28,14,-100,-100,-100,0,0,100,0.00,40.00,0,-999,0,0.00
2013-1-8,39,28,10,-100,-100,-100,0,0,100,0.00,40.00,0,-999,0,0.00
2013-1-9,37,29,20,-100,-100,-100,0,0,100,0.00,40.00,0,-999,0,0.00
2013-1-10,41,36,29,-100,-100,-100,0,0,100,0.00,40.00,0,-999,0,0.00
2013-1-11,32,16,6,-100,-100,-100,0,0,100,0.00,40.00,0,-999,0,0.00
2013-1-12,6,4,1,-100,-100,-100,0,0,100,0.00,40.00,0,-999,0,0.00
2013-1-13,7,2,-4,-100,-100,-100,0,0,100,0.00,40.00,0,-999,0,0.00
2013-1-14,11,3,-4,-100,-100,-100,0,0,100,0.00,40.00,0,-999,0,0.00
2013-1-15,38,22,7,-100,-100,-100,0,0,100,0.00,40.00,0,-999,0,0.00
2013-1-16,39,30,19,-100,-100,-100,0,0,100,0.00,40.00,0,-999,0,0.00
2013-1-17,30,27,24,-100,-100,-100,0,0,100,0.00,40.00,0,-999,0,0.00
2013-1-18,41,35,29,-100,-100,-100,0,0,100,0.00,40.00,0,-999,0,0.00
2013-1-19,37,18,2,-100,-100,-100,0,0,100,0.00,40.00,0,-999,0,0.00
2013-1-20,6,1,-7,-100,-100,-100,0,0,100,0.00,40.00,0,-999,0,0.00
2013-1-21,5,-3,-10,-100,-100,-100,0,0,100,0.00,40.00,0,-999,0,0.00
2013-1-22,15,8,2,-100,-100,-100,0,0,100,0.00,40.00,0,-999,0,0.00
2013-1-23,12,6,-1,-100,-100,-100,0,0,100,0.00,40.00,0,-999,0,0.00
2013-1-24,22,5,-2,-100,-100,-100,0,0,100,0.00,40.00,0,-999,0,0.00
2013-1-25,25,10,3,-100,-100,-100,0,0,100,0.00,40.00,0,-999,0,0.00
2013-1-26,27,16,4,-100,-100,-100,0,0,100,0.00,40.00,0,-999,0,0.00
2013-1-27,27,18,11,-100,-100,-100,0,0,100,0.00,40.00,0,-999,0,0.00
2013-1-28,33,28,21,-100,-100,-100,0,0,100,0.00,40.00,0,-999,0,0.00
2013-1-29,26,19,12,-100,-100,-100,0,0,100,0.00,40.00,0,-999,0,0.00
2013-1-30,12,-2,-9,-100,-100,-100,0,0,100,0.00,40.00,0,-999,0,0.00
2013-1-31,-7,-10,-16,-100,-100,-100,0,0,100,0.00,40.00,0,-999,0,0.00
2013-2-1,23,8,-12,-100,-100,-100,0,0,100,0.00,40.00,0,-999,0,0.00
2013-2-2,36,17,7,-100,-100,-100,0,0,100,0.00,40.00,0,-999,0,0.00
2013-2-3,23,18,12,-100,-100,-100,0,0,100,0.00,40.00,0,-999,0,0.00
2013-2-4,37,24,12,-100,-100,-100,0,0,100,0.00,40.00,0,-999,0,0.00
2013-2-5,37,30,24,-100,-100,-100,0,0,100,0.00,40.00,0,-999,0,0.00
2013-2-6,40,29,23,-100,-100,-100,0,0,100,0.00,40.00,0,-999,0,0.00
2013-2-7,26,21,17,-100,-100,-100,0,0,100,0.00,40.00,0,-999,0,0.00
2013-2-8,28,25,20,-100,-100,-100,0,0,100,0.00,40.00,0,-999,0,0.00
2013-2-9,28,26,22,-100,-100,-100,0,0,100,0.00,40.00,0,-999,0,0.00
2013-2-10,29,23,20,-100,-100,-100,0,0,100,0.00,40.00,0,-999,0,0.00
2013-2-11,25,22,20,-100,-100,-100,0,0,100,0.00,40.00,0,-999,0,0.00
2013-2-12,37,29,19,-100,-100,-100,0,0,100,0.00,40.00,0,-999,0,0.00
2013-2-13,38,34,30,-100,-100,-100,0,0,100,0.00,40.00,0,-999,0,0.00
2013-2-14,34,26,20,-100,-100,-100,0,0,100,0.00,40.00,0,-999,0,0.00
2013-2-15,25,20,18,-100,-100,-100,0,0,100,0.00,40.00,0,-999,0,0.00
2013-2-16,38,28,20,-100,-100,-100,0,0,100,0.00,40.00,0,-999,0,0.00
2013-2-17,43,36,30,-100,-100,-100,0,0,100,0.00,40.00,0,-999,0,0.00
2013-2-18,34,15,2,-100,-100,-100,0,0,100,0.00,40.00,0,-999,0,0.00
2013-2-19,7,-1,-9,-100,-100,-100,0,0,100,0.00,40.00,0,-999,0,0.00
2013-2-20,14,4,-7,-100,-100,-100,0,0,100,0.00,40.00,0,-999,0,0.00
2013-2-21,24,18,13,-100,-100,-100,0,0,100,0.00,40.00,0,-999,0,0.00
2013-2-22,29,19,13,-100,-100,-100,0,0,100,0.00,40.00,0,-999,0,0.00
2013-2-23,38,22,9,-100,-100,-100,0,0,100,0.00,40.00,0,-999,0,0.00
2013-2-24,33,28,22,-100,-100,-100,0,0,100,0.00,40.00,0,-999,0,0.00
2013-2-25,44,29,16,-100,-100,-100,0,0,100,0.00,40.00,0,-999,0,0.00
2013-2-26,42,32,24,-100,-100,-100,0,0,100,0.00,40.00,0,-999,0,0.00
2013-2-27,33,29,23,-100,-100,-100,0,0,100,0.00,40.00,0,-999,0,0.00
2013-2-28,33,26,22,-100,-100,-100,0,0,100,0.00,40.00,0,-999,0,0.00
2013-3-1,27,24,21,-100,-100,-100,0,0,100,0.00,40.00,0,-999,0,0.00
2013-3-2,46,33,26,-100,-100,-100,0,0,100,0.00,40.00,0,-999,0,0.00
2013-3-3,41,34,28,-100,-100,-100,0,0,100,0.00,40.00,0,-999,0,0.00
2013-3-4,34,29,22,-100,-100,-100,0,0,100,0.00,40.00,0,-999,0,0.00
2013-3-5,23,18,11,-100,-100,-100,0,0,100,0.00,40.00,0,-999,0,0.00
2013-3-6,23,14,4,-100,-100,-100,0,0,100,0.00,40.00,0,-999,0,0.00
2013-3-7,30,24,16,-100,-100,-100,0,0,100,0.00,40.00,0,-999,0,0.00
2013-3-8,33,26,19,-100,-100,-100,0,0,100,0.00,40.00,0,-999,0,0.00
2013-3-9,33,26,18,-100,-100,-100,0,0,100,0.00,40.00,0,-999,0,0.00
2013-3-10,30,19,11,-100,-100,-100,0,0,100,0.00,40.00,0,-999,0,0.00
2013-3-11,38,26,16,-100,-100,-100,0,0,100,0.00,40.00,0,-999,0,0.00
2013-3-12,29,22,15,-100,-100,-100,0,0,100,0.00,40.00,0,-999,0,0.00
2013-3-13,49,27,12,-100,-100,-100,0,0,100,0.00,40.00,0,-999,0,0.00
2013-3-14,59,40,29,-100,-100,-100,0,0,100,0.00,40.00,0,-999,0,0.00
2013-3-15,29,19,9,-100,-100,-100,0,0,100,0.00,40.00,0,-999,0,0.00
2013-3-16,21,10,4,-100,-100,-100,0,0,100,0.00,40.00,0,-999,0,0.00
2013-3-17,27,17,11,-100,-100,-100,0,0,100,0.00,40.00,0,-999,0,0.00
2013-3-18,27,14,8,-100,-100,-100,0,0,100,0.00,40.00,0,-999,0,0.00
2013-3-19,19,13,7,-100,-100,-100,0,0,100,0.00,40.00,0,-999,0,0.00
2013-3-20,26,13,4,-100,-100,-100,0,0,100,0.00,40.00,0,-999,0,0.00
2013-3-21,26,15,5,-100,-100,-100,0,0,100,0.00,40.00,0,-999,0,0.00
2013-3-22,25,18,14,-100,-100,-100,0,0,100,0.00,40.00,0,-999,0,0.00
2013-3-23,24,20,17,-100,-100,-100,0,0,100,0.00,40.00,0,-999,0,0.00
2013-3-24,27,20,16,-100,-100,-100,0,0,100,0.00,40.00,0,-999,0,0.00
2013-3-25,27,17,7,-100,-100,-100,0,0,100,0.00,40.00,0,-999,0,0.00
2013-3-26,34,20,10,-100,-100,-100,0,0,100,0.00,40.00,0,-999,0,0.00
2013-3-27,41,25,13,-100,-100,-100,0,0,100,0.00,40.00,0,-999,0,0.00
2013-3-28,47,31,20,-100,-100,-100,0,0,100,0.00,40.00,0,-999,0,0.00
2013-3-29,48,33,23,-100,-100,-100,0,0,100,0.00,40.00,0,-999,0,0.00
2013-3-30,54,39,29,-100,-100,-100,0,0,100,0.00,40.00,0,-999,0,0.00
2013-3-31,37,30,20,-100,-100,-100,0,0,100,0.00,40.00,0,-999,0,0.00
2013-4-1,38,25,16,-100,-100,-100,0,0,100,0.00,40.00,0,-999,0,0.00
2013-4-2,43,29,19,-100,-100,-100,0,0,100,0.00,40.00,0,-999,0,0.00
2013-4-3,62,38,28,-100,-100,-100,0,0,100,0.00,40.00,0,-999,0,0.00
2013-4-4,44,35,28,-100,-100,-100,0,0,100,0.00,40.00,0,-999,0,0.00
2013-4-5,47,34,25,-100,-100,-100,0,0,100,0.00,40.00,0,-999,0,0.00
2013-4-6,44,36,30,-100,-100,-100,0,0,100,0.00,40.00,0,-999,0,0.00
2013-4-7,48,38,32,-100,-100,-100,0,0,100,0.00,40.00,0,-999,0,0.00
2013-4-8,35,27,16,-100,-100,-100,0,0,100,0.00,40.00,0,-999,0,0.00
2013-4-9,32,21,12,-100,-100,-100,0,0,100,0.00,40.00,0,-999,0,0.00
2013-4-10,38,30,24,-100,-100,-100,0,0,100,0.00,40.00,0,-999,0,0.00
2013-4-11,39,32,27,-100,-100,-100,0,0,100,0.00,40.00,0,-999,0,0.00
2013-4-12,34,29,25,-100,-100,-100,0,0,100,0.00,40.00,0,-999,0,0.00
2013-4-13,41,33,29,-100,-100,-100,0,0,100,0.00,40.00,0,-999,0,0.00
2013-4-14,30,27,25,-100,-100,-100,0,0,100,0.00,40.00,0,-999,0,0.00
2013-4-15,34,30,28,-100,-100,-100,0,0,100,0.00,40.00,0,-999,0,0.00
2013-4-16,35,30,25,-100,-100,-100,0,0,100,0.00,40.00,0,-999,0,0.00
2013-4-17,35,29,24,-100,-100,-100,0,0,100,0.00,40.00,0,-999,0,0.00
2013-4-18,38,28,19,-100,-100,-100,0,0,100,0.00,40.00,0,-999,0,0.00
2013-4-19,39,30,22,-100,-100,-100,0,0,100,0.00,40.00,0,-999,0,0.00
2013-4-20,34,28,21,-100,-100,-100,0,0,100,0.00,40.00,0,-999,0,0.00
2013-4-21,39,34,29,-100,-100,-100,0,0,100,0.00,40.00,0,-999,0,0.00
2013-4-22,35,30,25,-100,-100,-100,0,0,100,0.00,40.00,0,-999,0,0.00
2013-4-23,45,32,18,-100,-100,-100,0,0,100,0.00,40.00,0,-999,0,0.00
2013-4-24,38,34,28,-100,-100,-100,0,0,100,0.00,40.00,0,-999,0,0.00
2013-4-25,61,42,26,-100,-100,-100,0,0,100,0.00,40.00,0,-999,0,0.00
2013-4-26,71,53,34,-100,-100,-100,0,0,100,0.00,40.00,0,-999,0,0.00
2013-4-27,76,62,46,-100,-100,-100,0,0,100,0.00,40.00,0,-999,0,0.00
2013-4-28,66,58,45,-100,-100,-100,0,0,100,0.00,40.00,0,-999,0,0.00
2013-4-29,65,49,36,-100,-100,-100,0,0,100,0.00,40.00,0,-999,0,0.00
2013-4-30,50,43,34,-100,-100,-100,0,0,100,0.00,40.00,0,-999,0,0.00
2013-5-1,49,36,26,-100,-100,-100,0,0,100,0.00,40.00,0,-999,0,0.00
2013-5-2,55,41,26,-100,-100,-100,0,0,100,0.00,40.00,0,-999,0,0.00
2013-5-3,56,41,29,-100,-100,-100,0,0,100,0.00,40.00,0,-999,0,0.00
2013-5-4,60,45,28,-100,-100,-100,0,0,100,0.00,40.00,0,-999,0,0.00
2013-5-5,65,47,31,-100,-100,-100,0,0,100,0.00,40.00,0,-999,0,0.00
2013-5-6,72,55,35,-100,-100,-100,0,0,100,0.00,40.00,0,-999,0,0.00
2013-5-7,74,58,40,-100,-100,-100,0,0,100,0.00,40.00,0,-999,0,0.00
2013-5-8,69,59,44,-100,-100,-100,0,0,100,0.00,40.00,0,-999,0,0.00
2013-5-9,63,50,37,-100,-100,-100,0,0,100,0.00,40.00,0,-999,0,0.00
2013-5-10,67,53,35,-100,-100,-100,0,0,100,0.00,40.00,0,-999,0,0.00
2013-5-11,57,44,33,-100,-100,-100,0,0,100,0.00,40.00,0,-999,0,0.00
2013-5-12,69,52,31,-100,-100,-100,0,0,100,0.00,40.00,0,-999,0,0.00
2013-5-13,88,71,57,-100,-100,-100,0,0,100,0.00,40.00,0,-999,0,0.00
2013-5-14,73,66,58,-100,-100,-100,0,0,100,0.00,40.00,0,-999,0,0.00
2013-5-15,77,64,52,-100,-100,-100,0,0,100,0.00,40.00,0,-999,0,0.00
2013-5-16,61,55,51,-100,-100,-100,0,0,100,0.00,40.00,0,-999,0,0.00
2013-5-17,78,63,51,-100,-100,-100,0,0,100,0.00,40.00,0,-999,0,0.00
2013-5-18,75,62,56,-100,-100,-100,0,0,100,0.00,40.00,0,-999,0,0.00
2013-5-19,61,55,52,-100,-100,-100,0,0,100,0.00,40.00,0,-999,0,0.00
2013-5-20,58,54,49,-100,-100,-100,0,0,100,0.00,40.00,0,-999,0,0.00
2013-5-21,50,47,44,-100,-100,-100,0,0,100,0.00,40.00,0,-999,0,0.00
2013-5-22,69,57,47,-100,-100,-100,0,0,100,0.00,40.00,0,-999,0,0.00
2013-5-23,68,60,49,-100,-100,-100,0,0,100,0.00,40.00,0,-999,0,0.00
2013-5-24,63,57,52,-100,-100,-100,0,0,100,0.00,40.00,0,-999,0,0.00
2013-5-25,73,60,49,-100,-100,-100,0,0,100,0.00,40.00,0,-999,0,0.00
2013-5-26,70,61,53,-100,-100,-100,0,0,100,0.00,40.00,0,-999,0,0.00
2013-5-27,61,56,52,-100,-100,-100,0,0,100,0.00,40.00,0,-999,0,0.00
2013-5-28,75,62,53,-100,-100,-100,0,0,100,0.00,40.00,0,-999,0,0.00
2013-5-29,75,63,53,-100,-100,-100,0,0,100,0.00,40.00,0,-999,0,0.00
2013-5-30,62,59,58,-100,-100,-100,0,0,100,0.00,40.00,0,-999,0,0.00
2013-5-31,58,54,50,-100,-100,-100,0,0,100,0.00,40.00,0,-999,0,0.00
2013-6-1,64,55,48,-100,-100,-100,0,0,100,0.00,40.00,0,-999,0,0.00
2013-6-2,66,54,41,-100,-100,-100,0,0,100,0.00,40.00,0,-999,0,0.00
2013-6-3,55,52,48,-100,-100,-100,0,0,100,0.00,40.00,0,-999,0,0.00
2013-6-4,54,52,49,-100,-100,-100,0,0,100,0.00,40.00,0,-999,0,0.00
2013-6-5,61,54,49,-100,-100,-100,0,0,100,0.00,40.00,0,-999,0,0.00
2013-6-6,70,57,42,-100,-100,-100,0,0,100,0.00,40.00,0,-999,0,0.00
2013-6-7,73,62,51,-100,-100,-100,0,0,100,0.00,40.00,0,-999,0,0.00
2013-6-8,65,59,56,-100,-100,-100,0,0,100,0.00,40.00,0,-999,0,0.00
2013-6-9,74,64,54,-100,-100,-100,0,0,100,0.00,40.00,0,-999,0,0.00
2013-6-10,80,67,58,-100,-100,-100,0,0,100,0.00,40.00,0,-999,0,0.00
2013-6-11,80,68,60,-100,-100,-100,0,0,100,0.00,40.00,0,-999,0,0.00
2013-6-12,72,63,59,-100,-100,-100,0,0,100,0.00,40.00,0,-999,0,0.00
2013-6-13,74,65,54,-100,-100,-100,0,0,100,0.00,40.00,0,-999,0,0.00
2013-6-14,76,68,62,-100,-100,-100,0,0,100,0.00,40.00,0,-999,0,0.00
2013-6-15,74,66,54,-100,-100,-100,0,0,100,0.00,40.00,0,-999,0,0.00
2013-6-16,75,65,54,-100,-100,-100,0,0,100,0.00,40.00,0,-999,0,0.00
2013-6-17,73,62,54,-100,-100,-100,0,0,100,0.00,40.00,0,-999,0,0.00
2013-6-18,77,63,49,-100,-100,-100,0,0,100,0.00,40.00,0,-999,0,0.00
2013-6-19,85,71,62,-100,-100,-100,0,0,100,0.00,40.00,0,-999,0,0.00
2013-6-20,83,72,67,-100,-100,-100,0,0,100,0.00,40.00,0,-999,0,0.00
2013-6-22,83,74,59,-100,-100,-100,0,0,100,0.00,40.00,0,-999,0,0.00
2013-6-23,73,65,58,-100,-100,-100,0,0,100,0.00,40.00,0,-999,0,0.00
2013-6-24,85,70,57,-100,-100,-100,0,0,100,0.00,40.00,0,-999,0,0.00
2013-6-25,80,74,67,-100,-100,-100,0,0,100,0.00,40.00,0,-999,0,0.00
2013-6-26,86,73,60,-100,-100,-100,0,0,100,0.00,40.00,0,-999,0,0.00
2013-6-27,81,71,61,-100,-100,-100,0,0,100,0.00,40.00,0,-999,0,0.00
2013-6-28,80,70,57,-100,-100,-100,0,0,100,0.00,40.00,0,-999,0,0.00
2013-6-29,80,68,57,-100,-100,-100,0,0,100,0.00,40.00,0,-999,0,0.00
2013-6-30,81,70,59,-100,-100,-100,0,0,100,0.00,40.00,0,-999,0,0.00
2013-7-1,79,68,57,-100,-100,-100,0,0,100,0.00,40.00,0,-999,0,0.00
2013-7-2,80,69,55,-100,-100,-100,0,0,100,0.00,40.00,0,-999,0,0.00
2013-7-3,86,72,58,-100,-100,-100,0,0,100,0.00,40.00,0,-999,0,0.00
2013-7-4,84,73,62,-100,-100,-100,0,0,100,0.00,40.00,0,-999,0,0.00
2013-7-5,80,70,60,-100,-100,-100,0,0,100,0.00,40.00,0,-999,0,0.00
2013-7-6,86,71,65,-100,-100,-100,0,0,100,0.00,40.00,0,-999,0,0.00
2013-7-7,78,68,59,-100,-100,-100,0,0,100,0.00,40.00,0,-999,0,0.00
2013-7-8,82,69,64,-100,-100,-100,0,0,100,0.00,40.00,0,-999,0,0.00
2013-7-9,78,68,60,-100,-100,-100,0,0,100,0.00,40.00,0,-999,0,0.00
2013-7-10,79,65,52,-100,-100,-100,0,0,100,0.00,40.00,0,-999,0,0.00
2013-7-11,91,75,65,-100,-100,-100,0,0,100,0.00,40.00,0,-999,0,0.00
2013-7-12,85,80,74,-100,-100,-100,0,0,100,0.00,40.00,0,-999,0,0.00
2013-7-13,87,76,63,-100,-100,-100,0,0,100,0.00,40.00,0,-999,0,0.00
2013-7-14,75,69,62,-100,-100,-100,0,0,100,0.00,40.00,0,-999,0,0.00
2013-7-15,83,72,67,-100,-100,-100,0,0,100,0.00,40.00,0,-999,0,0.00
2013-7-16,91,76,69,-100,-100,-100,0,0,100,0.00,40.00,0,-999,0,0.00
2013-7-17,89,77,65,-100,-100,-100,0,0,100,0.00,40.00,0,-999,0,0.00
2013-7-18,86,79,69,-100,-100,-100,0,0,100,0.00,40.00,0,-999,0,0.00
2013-7-19,85,72,58,-100,-100,-100,0,0,100,0.00,40.00,0,-999,0,0.00
2013-7-20,71,65,61,-100,-100,-100,0,0,100,0.00,40.00,0,-999,0,0.00
2013-7-21,84,69,59,-100,-100,-100,0,0,100,0.00,40.00,0,-999,0,0.00
2013-7-22,76,66,59,-100,-100,-100,0,0,100,0.00,40.00,0,-999,0,0.00
2013-7-23,78,65,56,-100,-100,-100,0,0,100,0.00,40.00,0,-999,0,0.00
2013-7-24,82,70,57,-100,-100,-100,0,0,100,0.00,40.00,0,-999,0,0.00
2013-7-25,75,67,60,-100,-100,-100,0,0,100,0.00,40.00,0,-999,0,0.00
2013-7-26,69,61,51,-100,-100,-100,0,0,100,0.00,40.00,0,-999,0,0.00
2013-7-27,72,58,44,-100,-100,-100,0,0,100,0.00,40.00,0,-999,0,0.00
2013-7-28,75,62,49,-100,-100,-100,0,0,100,0.00,40.00,0,-999,0,0.00
2013-7-29,71,64,58,-100,-100,-100,0,0,100,0.00,40.00,0,-999,0,0.00
2013-7-30,71,62,53,-100,-100,-100,0,0,100,0.00,40.00,0,-999,0,0.00
2013-7-31,78,67,57,-100,-100,-100,0,0,100,0.00,40.00,0,-999,0,0.00
2013-8-1,77,66,52,-100,-100,-100,0,0,100,0.00,40.00,0,-999,0,0.00
2013-8-2,75,64,55,-100,-100,-100,0,0,100,0.00,40.00,0,-999,0,0.00
2013-8-3,79,68,60,-100,-100,-100,0,0,100,0.00,40.00,0,-999,0,0.00
2013-8-4,71,65,60,-100,-100,-100,0,0,100,0.00,40.00,0,-999,0,0.00
2013-8-5,80,67,56,-100,-100,-100,0,0,100,0.00,40.00,0,-999,0,0.00
2013-8-6,74,67,57,-100,-100,-100,0,0,100,0.00,40.00,0,-999,0,0.00
2013-8-7,75,64,59,-100,-100,-100,0,0,100,0.00,40.00,0,-999,0,0.00
2013-8-8,74,65,57,-100,-100,-100,0,0,100,0.00,40.00,0,-999,0,0.00
2013-8-9,75,63,52,-100,-100,-100,0,0,100,0.00,40.00,0,-999,0,0.00
2013-8-10,76,62,48,-100,-100,-100,0,0,100,0.00,40.00,0,-999,0,0.00
2013-8-11,76,67,54,-100,-100,-100,0,0,100,0.00,40.00,0,-999,0,0.00
2013-8-12,80,66,53,-100,-100,-100,0,0,100,0.00,40.00,0,-999,0,0.00
2013-8-13,79,67,56,-100,-100,-100,0,0,100,0.00,40.00,0,-999,0,0.00
2013-8-14,77,66,59,-100,-100,-100,0,0,100,0.00,40.00,0,-999,0,0.00
2013-8-15,78,67,60,-100,-100,-100,0,0,100,0.00,40.00,0,-999,0,0.00
2013-8-16,79,69,59,-100,-100,-100,0,0,100,0.00,40.00,0,-999,0,0.00
2013-8-17,88,72,59,-100,-100,-100,0,0,100,0.00,40.00,0,-999,0,0.00
2013-8-18,87,75,67,-100,-100,-100,0,0,100,0.00,40.00,0,-999,0,0.00
2013-8-19,92,73,58,-100,-100,-100,0,0,100,0.00,40.00,0,-999,0,0.00
2013-8-20,95,79,64,-100,-100,-100,0,0,100,0.00,40.00,0,-999,0,0.00
2013-8-21,83,72,60,-100,-100,-100,0,0,100,0.00,40.00,0,-999,0,0.00
2013-8-22,79,69,59,-100,-100,-100,0,0,100,0.00,40.00,0,-999,0,0.00
2013-8-23,87,74,64,-100,-100,-100,0,0,100,0.00,40.00,0,-999,0,0.00
2013-8-24,91,80,70,-100,-100,-100,0,0,100,0.00,40.00,0,-999,0,0.00
2013-8-25,91,79,66,-100,-100,-100,0,0,100,0.00,40.00,0,-999,0,0.00
2013-8-26,82,74,67,-100,-100,-100,0,0,100,0.00,40.00,0,-999,0,0.00
2013-8-27,89,69,61,-100,-100,-100,0,0,100,0.00,40.00,0,-999,0,0.00
2013-8-28,90,84,73,-100,-100,-100,0,0,100,0.00,40.00,0,-999,0,0.00
2013-8-29,86,75,65,-100,-100,-100,0,0,100,0.00,40.00,0,-999,0,0.00
2013-8-30,89,74,63,-100,-100,-100,0,0,100,0.00,40.00,0,-999,0,0.00
2013-8-31,79,73,65,-100,-100,-100,0,0,100,0.00,40.00,0,-999,0,0.00
2013-9-1,73,64,56,-100,-100,-100,0,0,100,0.00,40.00,0,-999,0,0.00
2013-9-2,81,67,52,-100,-100,-100,0,0,100,0.00,40.00,0,-999,0,0.00
2013-9-3,86,71,61,-100,-100,-100,0,0,100,0.00,40.00,0,-999,0,0.00
2013-9-4,81,70,59,-100,-100,-100,0,0,100,0.00,40.00,0,-999,0,0.00
2013-9-5,89,75,61,-100,-100,-100,0,0,100,0.00,40.00,0,-999,0,0.00
2013-9-6,89,75,64,-100,-100,-100,0,0,100,0.00,40.00,0,-999,0,0.00
2013-9-7,75,70,65,-100,-100,-100,0,0,100,0.00,40.00,0,-999,0,0.00
2013-9-8,77,69,62,-100,-100,-100,0,0,100,0.00,40.00,0,-999,0,0.00
2013-9-9,76,69,64,-100,-100,-100,0,0,100,0.00,40.00,0,-999,0,0.00
2013-9-10,80,66,56,-100,-100,-100,0,0,100,0.00,40.00,0,-999,0,0.00
2013-9-11,78,66,55,-100,-100,-100,0,0,100,0.00,40.00,0,-999,0,0.00
2013-9-12,75,60,49,-100,-100,-100,0,0,100,0.00,40.00,0,-999,0,0.00
2013-9-13,77,64,53,-100,-100,-100,0,0,100,0.00,40.00,0,-999,0,0.00
2013-9-14,67,61,59,-100,-100,-100,0,0,100,0.00,40.00,0,-999,0,0.00
2013-9-15,65,56,45,-100,-100,-100,0,0,100,0.00,40.00,0,-999,0,0.00
2013-9-16,70,57,47,-100,-100,-100,0,0,100,0.00,40.00,0,-999,0,0.00
2013-9-17,77,64,55,-100,-100,-100,0,0,100,0.00,40.00,0,-999,0,0.00
2013-9-18,68,62,61,-100,-100,-100,0,0,100,0.00,40.00,0,-999,0,0.00
2013-9-19,66,56,51,-100,-100,-100,0,0,100,0.00,40.00,0,-999,0,0.00
2013-9-20,66,54,42,-100,-100,-100,0,0,100,0.00,40.00,0,-999,0,0.00
2013-9-21,72,57,43,-100,-100,-100,0,0,100,0.00,40.00,0,-999,0,0.00
2013-9-22,82,66,52,-100,-100,-100,0,0,100,0.00,40.00,0,-999,0,0.00
2013-9-23,75,64,55,-100,-100,-100,0,0,100,0.00,40.00,0,-999,0,0.00
2013-9-24,75,60,47,-100,-100,-100,0,0,100,0.00,40.00,0,-999,0,0.00
2013-9-25,76,66,57,-100,-100,-100,0,0,100,0.00,40.00,0,-999,0,0.00
2013-9-26,69,62,52,-100,-100,-100,0,0,100,0.00,40.00,0,-999,0,0.00
2013-9-27,56,51,47,-100,-100,-100,0,0,100,0.00,40.00,0,-999,0,0.00
2013-9-28,63,53,46,-100,-100,-100,0,0,100,0.00,40.00,0,-999,0,0.00
2013-9-29,71,58,46,-100,-100,-100,0,0,100,0.00,40.00,0,-999,0,0.00
2013-9-30,72,59,47,-100,-100,-100,0,0,100,0.00,40.00,0,-999,0,0.00
2013-10-1,56,53,50,-100,-100,-100,0,0,100,0.00,40.00,0,-999,0,0.00
2013-10-2,68,54,45,-100,-100,-100,0,0,100,0.00,40.00,0,-999,0,0.00
2013-10-3,57,51,45,-100,-100,-100,0,0,100,0.00,40.00,0,-999,0,0.00
2013-10-4,48,38,33,-100,-100,-100,0,0,100,0.00,40.00,0,-999,0,0.00
2013-10-5,44,38,34,-100,-100,-100,0,0,100,0.00,40.00,0,-999,0,0.00
2013-10-6,62,42,29,-100,-100,-100,0,0,100,0.00,40.00,0,-999,0,0.00
2013-10-7,69,52,38,-100,-100,-100,0,0,100,0.00,40.00,0,-999,0,0.00
2013-10-8,73,55,42,-100,-100,-100,0,0,100,0.00,40.00,0,-999,0,0.00
2013-10-9,69,55,41,-100,-100,-100,0,0,100,0.00,40.00,0,-999,0,0.00
2013-10-10,67,54,41,-100,-100,-100,0,0,100,0.00,40.00,0,-999,0,0.00
2013-10-11,63,56,46,-100,-100,-100,0,0,100,0.00,40.00,0,-999,0,0.00
2013-10-12,54,47,40,-100,-100,-100,0,0,100,0.00,40.00,0,-999,0,0.00
2013-10-13,53,42,31,-100,-100,-100,0,0,100,0.00,40.00,0,-999,0,0.00
2013-10-14,46,43,38,-100,-100,-100,0,0,100,0.00,40.00,0,-999,0,0.00
2013-10-15,51,42,38,-100,-100,-100,0,0,100,0.00,40.00,0,-999,0,0.00
2013-10-16,59,44,32,-100,-100,-100,0,0,100,0.00,40.00,0,-999,0,0.00
2013-10-17,49,42,36,-100,-100,-100,0,0,100,0.00,40.00,0,-999,0,0.00
2013-10-18,48,40,34,-100,-100,-100,0,0,100,0.00,40.00,0,-999,0,0.00
2013-10-19,50,42,36,-100,-100,-100,0,0,100,0.00,40.00,0,-999,0,0.00
2013-10-20,47,40,33,-100,-100,-100,0,0,100,0.00,40.00,0,-999,0,0.00
2013-10-21,38,33,28,-100,-100,-100,0,0,100,0.00,40.00,0,-999,0,0.00
2013-10-22,37,34,32,-100,-100,-100,0,0,100,0.00,40.00,0,-999,0,0.00
2013-10-23,39,36,32,-100,-100,-100,0,0,100,0.00,40.00,0,-999,0,0.00
2013-10-24,42,33,25,-100,-100,-100,0,0,100,0.00,40.00,0,-999,0,0.00
2013-10-25,61,44,30,-100,-100,-100,0,0,100,0.00,40.00,0,-999,0,0.00
2013-10-26,47,38,28,-100,-100,-100,0,0,100,0.00,40.00,0,-999,0,0.00
2013-10-27,47,39,29,-100,-100,-100,0,0,100,0.00,40.00,0,-999,0,0.00
2013-10-28,32,27,22,-100,-100,-100,0,0,100,0.00,40.00,0,-999,0,0.00
2013-10-29,35,30,27,-100,-100,-100,0,0,100,0.00,40.00,0,-999,0,0.00
2013-10-30,39,35,32,-100,-100,-100,0,0,100,0.00,40.00,0,-999,0,0.00
2013-10-31,44,38,30,-100,-100,-100,0,0,100,0.00,40.00,0,-999,0,0.00
2013-11-1,44,41,35,-100,-100,-100,0,0,100,0.00,40.00,0,-999,0,0.00
2013-11-2,55,41,28,-100,-100,-100,0,0,100,0.00,40.00,0,-999,0,0.00
2013-11-3,45,42,38,-100,-100,-100,0,0,100,0.00,40.00,0,-999,0,0.00
2013-11-4,41,36,26,-100,-100,-100,0,0,100,0.00,40.00,0,-999,0,0.00
2013-11-5,39,29,21,-100,-100,-100,0,0,100,0.00,40.00,0,-999,0,0.00
2013-11-6,48,32,25,-100,-100,-100,0,0,100,0.00,40.00,0,-999,0,0.00
2013-11-7,47,33,22,-100,-100,-100,0,0,100,0.00,40.00,0,-999,0,0.00
2013-11-8,46,39,33,-100,-100,-100,0,0,100,0.00,40.00,0,-999,0,0.00
2013-11-9,41,36,24,-100,-100,-100,0,0,100,0.00,40.00,0,-999,0,0.00
2013-11-10,41,29,20,-100,-100,-100,0,0,100,0.00,40.00,0,-999,0,0.00
2013-11-11,27,16,8,-100,-100,-100,0,0,100,0.00,40.00,0,-999,0,0.00
2013-11-12,46,28,14,-100,-100,-100,0,0,100,0.00,40.00,0,-999,0,0.00
2013-11-13,53,42,30,-100,-100,-100,0,0,100,0.00,40.00,0,-999,0,0.00
2013-11-14,50,41,31,-100,-100,-100,0,0,100,0.00,40.00,0,-999,0,0.00
2013-11-15,55,36,24,-100,-100,-100,0,0,100,0.00,40.00,0,-999,0,0.00
2013-11-16,45,35,26,-100,-100,-100,0,0,100,0.00,40.00,0,-999,0,0.00
2013-11-17,36,33,31,-100,-100,-100,0,0,100,0.00,40.00,0,-999,0,0.00
2013-11-18,44,31,20,-100,-100,-100,0,0,100,0.00,40.00,0,-999,0,0.00
2013-11-19,39,34,31,-100,-100,-100,0,0,100,0.00,40.00,0,-999,0,0.00
2013-11-20,31,22,13,-100,-100,-100,0,0,100,0.00,40.00,0,-999,0,0.00
2013-11-21,13,9,2,-100,-100,-100,0,0,100,0.00,40.00,0,-999,0,0.00
2013-11-22,21,12,-1,-100,-100,-100,0,0,100,0.00,40.00,0,-999,0,0.00
2013-11-23,19,6,-5,-100,-100,-100,0,0,100,0.00,40.00,0,-999,0,0.00
2013-11-24,45,29,17,-100,-100,-100,0,0,100,0.00,40.00,0,-999,0,0.00
2013-11-25,36,32,27,-100,-100,-100,0,0,100,0.00,40.00,0,-999,0,0.00
2013-11-26,27,18,12,-100,-100,-100,0,0,100,0.00,40.00,0,-999,0,0.00
2013-11-27,36,23,12,-100,-100,-100,0,0,100,0.00,40.00,0,-999,0,0.00
2013-11-28,27,23,18,-100,-100,-100,0,0,100,0.00,40.00,0,-999,0,0.00
2013-11-29,41,26,17,-100,-100,-100,0,0,100,0.00,40.00,0,-999,0,0.00
2013-11-30,38,30,23,-100,-100,-100,0,0,100,0.00,40.00,0,-999,0,0.00
2013-12-1,44,31,23,-100,-100,-100,0,0,100,0.00,40.00,0,-999,0,0.00
2013-12-2,33,28,21,-100,-100,-100,0,0,100,0.00,40.00,0,-999,0,0.00
2013-12-3,21,15,10,-100,-100,-100,0,0,100,0.00,40.00,0,-999,0,0.00
2013-12-4,10,8,2,-100,-100,-100,0,0,100,0.00,40.00,0,-999,0,0.00
2013-12-5,2,-2,-5,-100,-100,-100,0,0,100,0.00,40.00,0,-999,0,0.00
2013-12-6,-4,-8,-12,-100,-100,-100,0,0,100,0.00,40.00,0,-999,0,0.00
2013-12-7,-9,-14,-18,-100,-100,-100,0,0,100,0.00,40.00,0,-999,0,0.00
2013-12-8,-1,-7,-14,-100,-100,-100,0,0,100,0.00,40.00,0,-999,0,0.00
2013-12-9,17,0,-11,-100,-100,-100,0,0,100,0.00,40.00,0,-999,0,0.00
2013-12-10,19,6,-5,-100,-100,-100,0,0,100,0.00,40.00,0,-999,0,0.00
2013-12-11,18,-1,-15,-100,-100,-100,0,0,100,0.00,40.00,0,-999,0,0.00
2013-12-12,31,18,9,-100,-100,-100,0,0,100,0.00,40.00,0,-999,0,0.00
2013-12-13,13,2,-2,-100,-100,-100,0,0,100,0.00,40.00,0,-999,0,0.00
2013-12-14,12,6,-2,-100,-100,-100,0,0,100,0.00,40.00,0,-999,0,0.00
2013-12-15,8,5,2,-100,-100,-100,0,0,100,0.00,40.00,0,-999,0,0.00
2013-12-16,37,26,7,-100,-100,-100,0,0,100,0.00,40.00,0,-999,0,0.00
2013-12-17,34,26,19,-100,-100,-100,0,0,100,0.00,40.00,0,-999,0,0.00
2013-12-18,43,30,12,-100,-100,-100,0,0,100,0.00,40.00,0,-999,0,0.00
2013-12-19,12,3,-5,-100,-100,-100,0,0,100,0.00,40.00,0,-999,0,0.00
2013-12-20,4,-4,-12,-100,-100,-100,0,0,100,0.00,40.00,0,-999,0,0.00
2013-12-21,2,-4,-10,-100,-100,-100,0,0,100,0.00,40.00,0,-999,0,0.00
2013-12-22,-1,-5,-17,-100,-100,-100,0,0,100,0.00,40.00,0,-999,0,0.00
2013-12-23,-1,-15,-23,-100,-100,-100,0,0,100,0.00,40.00,0,-999,0,0.00
2013-12-24,32,18,-1,-100,-100,-100,0,0,100,0.00,40.00,0,-999,0,0.00
2013-12-25,33,29,24,-100,-100,-100,0,0,100,0.00,40.00,0,-999,0,0.00
2013-12-26,33,28,21,-100,-100,-100,0,0,100,0.00,40.00,0,-999,0,0.00
2013-12-27,43,36,21,-100,-100,-100,0,0,100,0.00,40.00,0,-999,0,0.00
2013-12-28,35,18,-4,-100,-100,-100,0,0,100,0.00,40.00,0,-999,0,0.00
2013-12-29,8,-1,-7,-100,-100,-100,0,0,100,0.00,40.00,0,-999,0,0.00
2013-12-30,10,6,1,-100,-100,-100,0,0,100,0.00,40.00,0,-999,0,0.00
2013-12-31,4,-3,-8,-100,-100,-100,0,0,100,0.00,40.00,0,-999,0,0.00
2014-1-1,1,-4,-6,-100,-100,-100,0,0,100,0.00,40.00,0,-999,0,0.00
2014-1-2,9,-4,-17,-100,-100,-100,0,0,100,0.00,40.00,0,-999,0,0.00